Time;durP1;ratioP1;P1;durP2;ratioP2;P2;SDS_P1;SDS_P2;PMS_P1;PMS_P2;Temp;Humidity;BMP_temperature;BMP_pressure;BME280_temperature;BME280_humidity;BME280_pressure;Samples;Min_cycle;Max_cycle;Signal;HPM_P1;HPM_P2
2023/04/24 00:01:00;;;;;;;7.63;5.40;;;;;;;10.62;71.17;94394.31;5139288;27;20254;-74
2023/04/24 00:03:28;;;;;;;8.85;5.15;;;;;;;10.60;71.17;94388.44;5145861;27;20266;-73
2023/04/24 00:05:55;;;;;;;10.43;5.28;;;;;;;10.61;71.27;94389.25;5131579;27;20667;-75
2023/04/24 00:08:24;;;;;;;8.90;5.20;;;;;;;10.54;70.68;94383.56;5137917;27;20203;-73
2023/04/24 00:10:52;;;;;;;7.65;4.38;;;;;;;10.51;70.92;94374.22;5138664;27;20228;-73
2023/04/24 00:13:19;;;;;;;10.73;4.75;;;;;;;10.55;70.23;94371.59;5138114;27;20777;-75
2023/04/24 00:15:46;;;;;;;9.70;4.40;;;;;;;10.50;70.59;94355.56;5151985;27;20211;-74
2023/04/24 00:18:13;;;;;;;9.00;5.18;;;;;;;10.41;71.81;94358.34;5144408;27;20573;-74
2023/04/24 00:20:39;;;;;;;9.85;5.70;;;;;;;10.20;74.21;94360.31;5145319;27;20227;-74
2023/04/24 00:23:06;;;;;;;8.95;5.28;;;;;;;10.12;74.48;94358.41;5138398;27;20197;-74
2023/04/24 00:25:35;;;;;;;7.72;5.30;;;;;;;9.97;74.61;94363.31;5136259;27;20205;-74
2023/04/24 00:28:02;;;;;;;13.55;5.95;;;;;;;9.92;74.57;94363.50;5138736;27;20188;-74
2023/04/24 00:30:29;;;;;;;10.57;6.25;;;;;;;9.84;74.88;94360.88;5136665;27;20201;-73
2023/04/24 00:32:56;;;;;;;9.48;5.75;;;;;;;9.65;76.88;94355.91;5130977;27;20201;-74
2023/04/24 00:35:23;;;;;;;7.65;4.97;;;;;;;9.60;76.44;94364.19;5130566;27;20225;-73
2023/04/24 00:37:50;;;;;;;9.23;5.38;;;;;;;9.50;76.46;94351.06;5130867;27;20196;-73
2023/04/24 00:40:16;;;;;;;10.27;5.97;;;;;;;9.64;76.30;94367.84;5144546;27;20204;-73
2023/04/24 00:42:45;;;;;;;9.55;5.72;;;;;;;9.70;76.57;94376.56;5140070;27;20196;-74
2023/04/24 00:45:13;;;;;;;10.10;5.53;;;;;;;9.69;76.86;94370.38;5135154;27;20233;-75
2023/04/24 00:47:40;;;;;;;8.48;5.25;;;;;;;9.79;76.66;94361.84;5131066;27;20205;-74
2023/04/24 00:50:08;;;;;;;14.77;6.35;;;;;;;9.84;76.01;94367.06;5144131;27;20193;-74
2023/04/24 00:52:35;;;;;;;11.15;6.18;;;;;;;9.87;76.16;94366.41;5140949;27;20256;-73
2023/04/24 00:55:02;;;;;;;10.30;4.85;;;;;;;9.95;75.49;94362.84;5137225;27;20200;-74
2023/04/24 00:57:29;;;;;;;7.63;5.20;;;;;;;10.21;75.15;94361.88;5142662;27;20548;-73
2023/04/24 00:59:58;;;;;;;14.68;4.90;;;;;;;10.26;74.77;94356.25;5133679;27;20205;-75
2023/04/24 01:02:26;;;;;;;9.75;5.82;;;;;;;10.42;74.65;94373.47;5130542;27;20205;-74
2023/04/24 01:04:52;;;;;;;10.25;5.60;;;;;;;10.47;74.34;94364.38;5144543;27;20244;-75
2023/04/24 01:07:21;;;;;;;12.50;6.00;;;;;;;10.38;74.60;94358.25;5142855;27;20192;-74
2023/04/24 01:09:50;;;;;;;16.98;8.45;;;;;;;10.44;74.83;94356.91;5137228;27;20200;-74
2023/04/24 01:12:18;;;;;;;12.63;6.03;;;;;;;10.49;74.96;94349.38;5138432;27;20271;-74
2023/04/24 01:14:45;;;;;;;9.18;5.82;;;;;;;10.68;75.44;94352.34;5150055;27;20192;-74
2023/04/24 01:17:13;;;;;;;12.85;6.60;;;;;;;10.58;75.57;94336.53;5138112;27;20197;-74
2023/04/24 01:19:40;;;;;;;10.20;6.53;;;;;;;10.47;77.95;94351.63;5143943;27;20293;-75
2023/04/24 01:22:14;;;;;;;11.45;5.05;;;;;;;10.09;75.45;94346.34;5143619;27;20223;-75
2023/04/24 01:24:41;;;;;;;8.48;4.97;;;;;;;9.92;76.52;94341.06;5137590;27;20603;-74
2023/04/24 01:27:09;;;;;;;12.65;5.40;;;;;;;9.91;78.32;94329.47;5136091;27;20197;-74
2023/04/24 01:29:36;;;;;;;6.72;4.75;;;;;;;9.78;78.24;94327.00;5130127;27;20208;-75
2023/04/24 01:32:04;;;;;;;7.95;4.35;;;;;;;9.82;78.36;94331.44;5131281;27;20197;-75
2023/04/24 01:34:31;;;;;;;7.10;4.53;;;;;;;9.75;77.46;94339.28;5142079;27;20315;-75
2023/04/24 01:36:58;;;;;;;9.00;4.13;;;;;;;9.63;77.56;94339.22;5143710;27;20205;-75
2023/04/24 01:39:28;;;;;;;9.35;4.47;;;;;;;9.51;78.85;94325.63;5129998;27;20550;-75
2023/04/24 01:41:55;;;;;;;10.15;4.90;;;;;;;9.43;79.50;94323.75;5146173;27;20904;-75
2023/04/24 01:44:22;;;;;;;6.35;4.55;;;;;;;9.50;80.23;94321.31;5141268;27;20719;-77
2023/04/24 01:46:50;;;;;;;10.85;4.85;;;;;;;9.49;80.49;94327.84;5143231;27;20694;-75
2023/04/24 01:49:17;;;;;;;6.63;4.22;;;;;;;9.36;81.17;94334.28;5139561;27;20200;-75
2023/04/24 01:51:44;;;;;;;8.07;5.03;;;;;;;9.32;83.34;94328.72;5133106;27;20201;-75
2023/04/24 01:54:11;;;;;;;9.65;4.90;;;;;;;9.25;83.04;94302.25;5129379;27;20197;-75
2023/04/24 01:56:42;;;;;;;9.73;5.35;;;;;;;9.25;82.90;94313.03;5143495;27;20656;-74
2023/04/24 01:59:10;;;;;;;8.40;4.85;;;;;;;9.25;83.11;94321.16;5133705;27;20739;-75
2023/04/24 02:01:38;;;;;;;12.55;6.60;;;;;;;9.27;83.18;94320.84;5129612;27;20254;-74
2023/04/24 02:04:05;;;;;;;10.80;6.70;;;;;;;9.18;83.22;94317.38;5141383;27;20660;-74
2023/04/24 02:06:32;;;;;;;10.43;5.38;;;;;;;9.03;83.57;94318.69;5136309;27;20200;-74
2023/04/24 02:08:59;;;;;;;8.88;4.88;;;;;;;8.91;83.98;94319.41;5137930;27;20209;-74
2023/04/24 02:11:26;;;;;;;9.55;4.80;;;;;;;8.95;84.37;94329.56;5143530;27;20298;-74
2023/04/24 02:13:54;;;;;;;6.97;4.13;;;;;;;8.75;83.70;94314.84;5141882;27;20204;-74
2023/04/24 02:16:22;;;;;;;5.03;3.92;;;;;;;8.66;83.39;94314.09;5135808;27;20642;-75
2023/04/24 02:18:49;;;;;;;10.90;5.18;;;;;;;8.59;83.20;94321.91;5137012;27;20663;-74
2023/04/24 02:21:16;;;;;;;7.13;3.90;;;;;;;8.52;82.49;94322.38;5149545;27;20245;-74
2023/04/24 02:23:43;;;;;;;9.23;4.25;;;;;;;8.48;83.32;94316.84;5136550;27;20207;-74
2023/04/24 02:26:10;;;;;;;7.78;4.65;;;;;;;8.49;84.34;94323.81;5143094;27;20204;-75
2023/04/24 02:28:37;;;;;;;6.35;4.50;;;;;;;8.50;85.22;94325.41;5142659;27;20662;-75
2023/04/24 02:31:06;;;;;;;8.75;5.00;;;;;;;8.53;85.84;94319.38;5135686;27;20196;-74
2023/04/24 02:33:32;;;;;;;7.00;4.80;;;;;;;8.52;86.40;94317.78;5135747;27;20233;-75
2023/04/24 02:35:59;;;;;;;14.30;5.40;;;;;;;8.55;87.21;94308.25;5142109;27;20236;-75
2023/04/24 02:38:26;;;;;;;11.25;5.82;;;;;;;8.63;86.91;94304.72;5143496;27;20196;-75
2023/04/24 02:40:53;;;;;;;7.57;5.25;;;;;;;8.52;86.97;94296.19;5141521;27;20208;-75
2023/04/24 02:43:20;;;;;;;10.65;6.28;;;;;;;8.57;87.25;94297.94;5128684;28;20205;-74
2023/04/24 02:45:46;;;;;;;10.05;5.43;;;;;;;8.66;87.04;94290.59;5136922;27;20299;-74
2023/04/24 02:48:15;;;;;;;12.15;5.82;;;;;;;8.69;87.34;94294.56;5137174;27;20281;-74
2023/04/24 02:50:42;;;;;;;11.80;6.15;;;;;;;8.68;87.37;94293.75;5153537;27;20192;-74
2023/04/24 02:53:08;;;;;;;8.93;5.00;;;;;;;8.64;86.91;94292.03;5138271;27;20212;-75
2023/04/24 02:55:35;;;;;;;9.23;5.68;;;;;;;8.57;86.25;94297.13;5132662;27;20201;-75
2023/04/24 02:58:02;;;;;;;9.38;5.18;;;;;;;8.63;85.98;94293.13;5138330;27;20672;-75
2023/04/24 03:00:29;;;;;;;11.40;5.32;;;;;;;8.68;86.38;94284.88;5133607;27;20200;-74
2023/04/24 03:02:56;;;;;;;9.95;5.88;;;;;;;8.59;87.16;94297.63;5135606;27;20824;-75
2023/04/24 03:05:24;;;;;;;9.20;5.43;;;;;;;8.50;87.79;94309.22;5144851;27;20714;-74
2023/04/24 03:07:52;;;;;;;11.75;5.82;;;;;;;8.58;88.05;94304.13;5147190;27;20196;-75
2023/04/24 03:10:19;;;;;;;9.73;6.10;;;;;;;8.53;88.20;94303.19;5132673;27;20276;-73
2023/04/24 03:12:46;;;;;;;12.55;6.28;;;;;;;8.60;88.10;94312.69;5146362;27;20225;-76
2023/04/24 03:15:12;;;;;;;13.25;6.28;;;;;;;8.61;88.03;94309.66;5132512;27;20254;-73
2023/04/24 03:17:39;;;;;;;9.85;5.28;;;;;;;8.60;88.07;94312.69;5146887;27;20209;-74
2023/04/24 03:20:07;;;;;;;10.75;6.40;;;;;;;8.57;88.41;94314.13;5142798;27;20226;-74
2023/04/24 03:22:36;;;;;;;12.80;5.93;;;;;;;8.65;88.38;94315.22;5139334;27;20251;-74
2023/04/24 03:25:03;;;;;;;10.30;6.40;;;;;;;8.69;88.21;94316.16;5142648;27;20228;-74
2023/04/24 03:27:30;;;;;;;11.98;6.50;;;;;;;8.75;87.98;94312.16;5146740;27;20209;-75
2023/04/24 03:29:57;;;;;;;11.65;6.43;;;;;;;8.68;88.22;94317.25;5143437;27;20200;-75
2023/04/24 03:32:24;;;;;;;15.18;8.52;;;;;;;8.83;87.74;94316.75;5138963;27;20196;-75
2023/04/24 03:34:51;;;;;;;11.57;6.20;;;;;;;8.74;87.86;94308.69;5142202;27;20220;-75
2023/04/24 03:37:18;;;;;;;9.95;5.95;;;;;;;8.87;87.30;94302.28;5145911;27;20197;-75
2023/04/24 03:39:46;;;;;;;9.05;5.90;;;;;;;8.94;87.13;94317.16;5143311;27;20216;-74
2023/04/24 03:42:13;;;;;;;8.25;4.93;;;;;;;8.82;87.46;94304.34;5138854;27;20201;-74
2023/04/24 03:44:40;;;;;;;10.20;6.10;;;;;;;8.93;87.05;94300.16;5141023;27;20228;-74
2023/04/24 03:47:07;;;;;;;10.48;5.93;;;;;;;9.03;86.79;94299.78;5145982;27;20212;-74
2023/04/24 03:49:33;;;;;;;11.30;5.97;;;;;;;9.26;86.12;94303.03;5131866;27;20208;-74
2023/04/24 03:52:00;;;;;;;10.45;6.50;;;;;;;9.76;84.81;94294.88;5145480;27;20208;-74
2023/04/24 03:54:27;;;;;;;10.57;6.40;;;;;;;10.34;81.69;94303.97;5131927;27;20700;-75
2023/04/24 03:56:55;;;;;;;8.38;6.03;;;;;;;10.76;79.76;94303.84;5146041;27;20224;-75
2023/04/24 03:59:22;;;;;;;10.35;6.10;;;;;;;11.53;76.77;94293.91;5148439;27;20192;-75
2023/04/24 04:01:49;;;;;;;9.63;5.43;;;;;;;12.08;74.46;94299.44;5131838;27;20205;-75
2023/04/24 04:04:16;;;;;;;10.15;5.75;;;;;;;12.67;72.43;94282.44;5145455;27;20315;-74
2023/04/24 04:06:43;;;;;;;9.23;5.75;;;;;;;12.98;70.41;94291.75;5145462;27;20204;-74
2023/04/24 04:09:10;;;;;;;8.27;5.60;;;;;;;13.36;69.10;94291.94;5145331;27;20219;-73
2023/04/24 04:11:37;;;;;;;10.13;5.57;;;;;;;14.05;67.09;94289.56;5138638;27;20228;-75
2023/04/24 04:14:06;;;;;;;13.82;8.13;;;;;;;14.05;66.78;94275.94;5138024;27;20204;-75
2023/04/24 04:16:32;;;;;;;9.13;5.70;;;;;;;14.34;65.72;94293.66;5144206;27;20285;-74
2023/04/24 04:18:59;;;;;;;8.07;5.82;;;;;;;14.30;65.20;94284.63;5144640;27;20207;-74
2023/04/24 04:21:27;;;;;;;7.90;5.10;;;;;;;13.84;66.58;94273.56;5139679;27;20211;-74
2023/04/24 04:23:54;;;;;;;12.18;7.47;;;;;;;13.93;66.29;94292.41;5150946;27;20197;-75
2023/04/24 04:26:25;;;;;;;16.92;7.80;;;;;;;13.90;66.33;94293.13;5139236;27;20224;-76
2023/04/24 04:28:52;;;;;;;13.63;6.28;;;;;;;13.86;66.20;94290.31;5138328;27;20200;-75
2023/04/24 04:31:20;;;;;;;13.27;8.05;;;;;;;13.33;66.08;94292.63;5142811;27;20205;-76
2023/04/24 04:33:47;;;;;;;15.20;6.00;;;;;;;12.96;67.70;94302.19;5145345;27;20220;-74
2023/04/24 04:36:17;;;;;;;9.40;5.90;;;;;;;12.67;69.25;94298.75;5130708;27;20221;-74
2023/04/24 04:38:44;;;;;;;10.93;5.93;;;;;;;12.61;70.51;94310.97;5144915;27;20205;-74
2023/04/24 04:41:11;;;;;;;10.63;5.95;;;;;;;12.40;70.19;94310.41;5140807;27;20237;-74
2023/04/24 04:43:40;;;;;;;9.95;5.78;;;;;;;11.81;68.43;94316.50;5137513;27;20248;-73
2023/04/24 04:46:08;;;;;;;8.05;4.85;;;;;;;11.50;69.58;94321.69;5151868;27;20332;-74
2023/04/24 04:48:36;;;;;;;8.68;4.88;;;;;;;11.12;70.58;94322.84;5133474;27;20291;-74
2023/04/24 04:51:05;;;;;;;8.00;5.45;;;;;;;11.44;71.27;94339.34;5142277;27;20508;-75
2023/04/24 04:53:32;;;;;;;12.55;5.32;;;;;;;11.30;71.73;94335.06;5146968;27;20204;-74
2023/04/24 04:55:59;;;;;;;11.43;5.72;;;;;;;11.53;70.35;94331.88;5141994;27;20211;-74
2023/04/24 04:58:26;;;;;;;13.45;5.30;;;;;;;11.71;70.64;94342.16;5137717;27;20242;-73
2023/04/24 05:00:53;;;;;;;13.60;5.38;;;;;;;11.86;70.65;94335.25;5130324;27;20205;-74
2023/04/24 05:03:19;;;;;;;11.50;5.25;;;;;;;12.17;70.17;94333.81;5144312;27;20216;-74
2023/04/24 05:05:48;;;;;;;16.27;5.45;;;;;;;12.03;70.07;94317.88;5142221;27;20228;-73
2023/04/24 05:08:14;;;;;;;15.20;5.80;;;;;;;12.12;69.86;94334.06;5137184;27;20196;-74
2023/04/24 05:10:41;;;;;;;6.75;3.83;;;;;;;11.66;65.65;94336.16;5138370;27;20205;-74
2023/04/24 05:13:09;;;;;;;7.05;4.43;;;;;;;11.61;66.25;94344.53;5143910;27;20239;-75
2023/04/24 05:15:35;;;;;;;8.82;4.28;;;;;;;11.44;66.37;94344.78;5143575;27;20208;-75
2023/04/24 05:18:07;;;;;;;6.25;3.47;;;;;;;11.51;66.33;94337.63;5136991;27;20208;-76
2023/04/24 05:20:34;;;;;;;10.10;3.58;;;;;;;11.51;65.40;94334.94;5136883;27;20211;-74
2023/04/24 05:23:02;;;;;;;7.13;3.25;;;;;;;11.14;66.66;94333.34;5142572;27;20201;-74
2023/04/24 05:25:31;;;;;;;7.13;3.40;;;;;;;11.14;66.64;94342.28;5143874;27;20709;-75
2023/04/24 05:27:58;;;;;;;6.47;4.38;;;;;;;11.48;65.37;94341.03;5138397;27;20579;-75
2023/04/24 05:30:25;;;;;;;9.93;3.50;;;;;;;11.56;65.66;94331.19;5136553;27;20391;-73
2023/04/24 05:32:52;;;;;;;8.70;4.70;;;;;;;11.65;65.40;94331.84;5142129;27;20197;-74
2023/04/24 05:35:19;;;;;;;13.43;3.53;;;;;;;12.00;64.46;94330.25;5143245;27;20221;-73
2023/04/24 05:37:46;;;;;;;7.57;3.53;;;;;;;12.72;62.68;94325.63;5130107;27;20253;-75
2023/04/24 05:40:14;;;;;;;7.18;3.72;;;;;;;13.48;61.51;94327.19;5131262;27;20277;-75
2023/04/24 05:42:41;;;;;;;6.63;5.22;;;;;;;14.66;56.73;94325.06;5141162;27;20197;-74
2023/04/24 05:45:09;;;;;;;10.98;5.03;;;;;;;15.07;56.91;94328.94;5143463;27;20224;-75
2023/04/24 05:47:36;;;;;;;8.07;3.17;;;;;;;14.99;55.30;94324.53;5139290;27;20211;-74
2023/04/24 05:50:03;;;;;;;10.40;5.10;;;;;;;15.15;54.60;94324.41;5133319;27;20200;-74
2023/04/24 05:52:30;;;;;;;11.07;4.30;;;;;;;14.39;56.74;94328.78;5139211;27;20291;-74
2023/04/24 05:54:57;;;;;;;7.20;3.42;;;;;;;14.81;55.31;94326.13;5136176;27;20211;-74
2023/04/24 05:57:25;;;;;;;8.25;3.65;;;;;;;15.26;54.16;94328.09;5141100;27;20199;-75
2023/04/24 05:59:52;;;;;;;6.28;4.07;;;;;;;15.79;52.72;94309.06;5132482;27;20667;-75
2023/04/24 06:02:19;;;;;;;7.32;4.93;;;;;;;15.98;52.12;94317.16;5139909;27;20199;-74
2023/04/24 06:04:46;;;;;;;8.13;5.22;;;;;;;15.70;53.05;94316.75;5136421;27;20291;-74
2023/04/24 06:07:13;;;;;;;9.85;5.75;;;;;;;16.63;50.71;94320.38;5139185;27;20706;-74
2023/04/24 06:09:40;;;;;;;9.55;5.70;;;;;;;17.58;49.27;94303.28;5143611;27;20217;-75
2023/04/24 06:12:08;;;;;;;7.97;3.97;;;;;;;19.06;45.97;94307.97;5140065;27;20242;-77
2023/04/24 06:14:36;;;;;;;4.63;3.97;;;;;;;20.28;41.96;94298.53;5132247;27;20207;-74
2023/04/24 06:17:03;;;;;;;9.18;5.07;;;;;;;20.42;41.39;94298.53;5129036;27;20205;-72
2023/04/24 06:19:29;;;;;;;8.40;4.10;;;;;;;20.72;41.21;94297.25;5142820;27;20203;-73
2023/04/24 06:21:56;;;;;;;7.00;4.78;;;;;;;20.11;41.56;94302.13;5129056;27;20205;-74
2023/04/24 06:24:23;;;;;;;6.78;4.60;;;;;;;21.07;40.59;94299.81;5133547;27;20200;-74
2023/04/24 06:26:50;;;;;;;8.52;5.20;;;;;;;21.77;38.14;94292.25;5137568;27;20221;-74
2023/04/24 06:29:17;;;;;;;5.43;4.55;;;;;;;22.68;37.12;94289.78;5148565;27;20207;-74
2023/04/24 06:31:45;;;;;;;11.70;5.47;;;;;;;21.38;38.94;94298.06;5141655;27;20200;-74
2023/04/24 06:34:12;;;;;;;9.35;4.95;;;;;;;20.15;41.04;94300.94;5137812;27;20590;-74
2023/04/24 06:36:39;;;;;;;7.65;4.78;;;;;;;20.81;39.96;94300.34;5136715;27;20482;-74
2023/04/24 06:39:06;;;;;;;12.05;5.82;;;;;;;20.89;39.95;94299.13;5137629;27;20286;-74
2023/04/24 06:41:33;;;;;;;14.82;5.22;;;;;;;21.63;38.56;94301.41;5144616;27;20231;-74
2023/04/24 06:44:00;;;;;;;8.23;5.60;;;;;;;20.89;40.66;94299.13;5140457;27;20200;-74
2023/04/24 06:46:27;;;;;;;10.88;5.78;;;;;;;20.76;39.74;94306.28;5136611;27;20216;-74
2023/04/24 06:48:56;;;;;;;10.23;5.97;;;;;;;19.68;41.76;94304.91;5129191;28;20280;-74
2023/04/24 06:51:24;;;;;;;11.73;6.47;;;;;;;18.12;46.20;94320.91;5128446;27;20201;-74
2023/04/24 06:53:52;;;;;;;11.45;7.22;;;;;;;18.39;45.67;94319.47;5136422;27;20200;-74
2023/04/24 06:56:18;;;;;;;10.25;7.00;;;;;;;19.05;44.39;94320.13;5135728;27;20208;-74
2023/04/24 06:58:46;;;;;;;14.05;7.07;;;;;;;20.79;41.61;94305.47;5144557;27;20670;-74
2023/04/24 07:01:12;;;;;;;13.60;6.82;;;;;;;21.63;39.27;94297.88;5135547;27;20196;-73
2023/04/24 07:03:39;;;;;;;12.98;6.95;;;;;;;21.19;39.77;94301.34;5141219;27;20587;-74
2023/04/24 07:06:08;;;;;;;11.23;7.15;;;;;;;20.08;41.33;94297.44;5131450;27;20256;-75
2023/04/24 07:08:35;;;;;;;8.20;6.47;;;;;;;21.21;39.64;94283.22;5129038;28;20205;-74
2023/04/24 07:11:02;;;;;;;13.48;6.80;;;;;;;21.84;38.48;94283.94;5142149;27;20192;-74
2023/04/24 07:13:29;;;;;;;10.20;7.28;;;;;;;22.13;37.89;94275.41;5137634;27;20228;-75
2023/04/24 07:15:56;;;;;;;11.38;7.07;;;;;;;22.47;36.88;94276.19;5135603;27;20200;-74
2023/04/24 07:18:23;;;;;;;12.70;6.90;;;;;;;22.48;36.97;94277.00;5139451;27;20250;-74
2023/04/24 07:20:50;;;;;;;8.70;6.18;;;;;;;23.20;36.13;94275.69;5128691;28;20669;-74
2023/04/24 07:23:19;;;;;;;10.60;5.35;;;;;;;23.78;35.28;94276.38;5138046;27;20204;-75
2023/04/24 07:25:46;;;;;;;9.90;6.38;;;;;;;23.99;34.82;94270.50;5131844;27;20236;-74
2023/04/24 07:28:13;;;;;;;10.90;6.57;;;;;;;24.06;35.06;94275.88;5128633;28;20228;-74
2023/04/24 07:30:40;;;;;;;10.88;6.80;;;;;;;22.88;36.52;94275.34;5128760;27;20204;-75
2023/04/24 07:33:07;;;;;;;12.43;6.90;;;;;;;23.55;36.19;94268.84;5139207;27;20207;-75
2023/04/24 07:35:34;;;;;;;10.25;7.20;;;;;;;21.17;38.60;94271.44;5138681;27;20204;-74
2023/04/24 07:38:01;;;;;;;9.85;5.55;;;;;;;20.85;39.40;94270.81;5142219;27;20201;-74
2023/04/24 07:40:29;;;;;;;9.23;5.57;;;;;;;20.45;40.76;94270.22;5145903;27;20205;-74
2023/04/24 07:42:56;;;;;;;9.18;4.75;;;;;;;20.16;41.30;94275.00;5142912;27;20202;-74
2023/04/24 07:45:23;;;;;;;6.78;4.60;;;;;;;20.14;41.38;94271.88;5133873;27;20201;-74
2023/04/24 07:47:51;;;;;;;6.97;4.30;;;;;;;19.45;42.20;94277.03;5132474;27;20212;-75
2023/04/24 07:50:18;;;;;;;7.28;4.53;;;;;;;20.55;40.32;94266.63;5146199;27;20269;-74
2023/04/24 07:52:45;;;;;;;7.90;5.95;;;;;;;20.40;41.00;94258.84;5132267;27;20245;-75
2023/04/24 07:55:12;;;;;;;9.05;5.80;;;;;;;20.31;40.78;94259.25;5146265;27;20197;-75
2023/04/24 07:57:40;;;;;;;9.48;6.22;;;;;;;20.73;40.34;94254.78;5140998;27;20200;-74
2023/04/24 08:00:08;;;;;;;8.40;5.47;;;;;;;19.76;43.28;94254.28;5145277;27;20273;-74
2023/04/24 08:02:35;;;;;;;11.05;6.43;;;;;;;19.66;42.57;94257.03;5144731;27;20196;-74
2023/04/24 08:05:03;;;;;;;10.27;5.97;;;;;;;19.29;44.23;94266.41;5138406;27;20684;-74
2023/04/24 08:07:30;;;;;;;7.97;5.68;;;;;;;19.16;44.83;94257.78;5139434;27;20244;-74
2023/04/24 08:09:57;;;;;;;9.32;5.90;;;;;;;20.54;43.44;94261.53;5146125;27;20209;-75
2023/04/24 08:12:23;;;;;;;8.93;5.65;;;;;;;20.14;41.89;94254.56;5145307;27;20239;-75
2023/04/24 08:14:52;;;;;;;9.30;5.75;;;;;;;19.81;42.85;94256.63;5138992;27;20284;-75
2023/04/24 08:17:18;;;;;;;10.10;6.75;;;;;;;19.37;43.46;94257.03;5138409;27;20197;-75
2023/04/24 08:19:48;;;;;;;9.00;5.78;;;;;;;19.73;42.96;94252.31;5145155;27;20704;-74
2023/04/24 08:22:15;;;;;;;10.68;6.40;;;;;;;19.56;43.80;94249.56;5132381;27;20204;-75
2023/04/24 08:24:41;;;;;;;8.20;6.28;;;;;;;18.56;46.08;94245.88;5144111;27;20295;-74
2023/04/24 08:27:09;;;;;;;9.27;6.57;;;;;;;18.71;45.79;94248.31;5144716;27;20627;-75
2023/04/24 08:29:36;;;;;;;7.78;6.30;;;;;;;19.12;44.34;94246.03;5139954;27;20204;-75
2023/04/24 08:32:04;;;;;;;8.18;5.95;;;;;;;19.57;44.22;94243.69;5137848;27;20205;-74
2023/04/24 08:34:31;;;;;;;8.40;6.00;;;;;;;19.47;44.62;94234.25;5143008;27;20228;-75
2023/04/24 08:37:01;;;;;;;9.98;5.80;;;;;;;19.76;45.12;94239.75;5145148;27;20200;-75
2023/04/24 08:39:27;;;;;;;9.65;6.72;;;;;;;19.15;45.97;94239.72;5141306;27;20212;-74
2023/04/24 08:41:56;;;;;;;11.80;5.65;;;;;;;18.61;46.85;94242.78;5148689;27;20591;-75
2023/04/24 08:44:23;;;;;;;11.88;6.15;;;;;;;18.51;46.48;94235.28;5131014;27;20213;-75
2023/04/24 08:46:51;;;;;;;8.73;6.38;;;;;;;18.63;45.95;94223.97;5144081;27;20236;-76
2023/04/24 08:49:19;;;;;;;8.60;6.35;;;;;;;19.00;45.04;94216.19;5141695;27;20200;-75
2023/04/24 08:51:47;;;;;;;9.80;6.28;;;;;;;18.77;46.09;94224.00;5136425;27;20215;-75
2023/04/24 08:54:14;;;;;;;9.55;6.45;;;;;;;19.29;45.28;94205.22;5140547;27;20193;-74
2023/04/24 08:56:44;;;;;;;9.48;6.38;;;;;;;19.61;46.06;94211.50;5144493;27;20207;-74
2023/04/24 08:59:12;;;;;;;12.05;6.20;;;;;;;19.28;44.99;94204.41;5135651;27;20803;-75
2023/04/24 09:01:39;;;;;;;11.73;6.00;;;;;;;19.63;45.12;94211.09;5130440;27;20213;-74
2023/04/24 09:04:08;;;;;;;9.05;5.30;;;;;;;19.12;46.17;94207.59;5142534;27;20249;-75
2023/04/24 09:06:37;;;;;;;7.28;5.38;;;;;;;18.55;46.55;94203.16;5137132;27;20273;-74
2023/04/24 09:09:04;;;;;;;10.75;5.68;;;;;;;18.42;46.84;94200.78;5138436;27;20208;-75
2023/04/24 09:11:32;;;;;;;9.77;6.00;;;;;;;17.91;47.67;94200.16;5130538;27;20576;-75
2023/04/24 09:13:59;;;;;;;11.98;5.75;;;;;;;18.04;47.55;94206.91;5130729;27;20241;-75
2023/04/24 09:16:26;;;;;;;9.38;5.93;;;;;;;18.64;47.38;94192.63;5143780;27;20200;-75
2023/04/24 09:18:53;;;;;;;9.93;5.65;;;;;;;18.29;46.80;94188.59;5143137;27;20659;-76
2023/04/24 09:21:23;;;;;;;7.53;5.28;;;;;;;18.56;47.03;94191.03;5130546;27;20208;-74
2023/04/24 09:24:00;;;;;;;7.43;5.22;;;;;;;18.81;46.06;94189.13;5130037;27;20720;-74
2023/04/24 09:26:31;;;;;;;7.25;5.22;;;;;;;19.29;45.12;94177.75;5130096;27;20212;-74
2023/04/24 09:28:58;;;;;;;8.73;4.88;;;;;;;19.96;44.15;94174.09;5143798;27;20220;-74
2023/04/24 09:31:28;;;;;;;8.10;5.10;;;;;;;19.37;44.75;94179.31;5139815;27;20203;-75
2023/04/24 09:33:56;;;;;;;9.57;5.40;;;;;;;19.36;44.95;94175.00;5136886;27;20224;-73
2023/04/24 09:36:28;;;;;;;9.32;5.13;;;;;;;19.57;44.08;94166.75;5140594;27;20295;-75
2023/04/24 09:39:00;;;;;;;6.20;4.90;;;;;;;19.09;45.25;94164.44;5143934;27;20196;-75
2023/04/24 09:41:28;;;;;;;7.45;5.13;;;;;;;19.30;45.02;94162.84;5141437;27;20195;-75
2023/04/24 09:43:56;;;;;;;9.52;5.45;;;;;;;19.69;43.79;94166.31;5136456;27;20252;-74
2023/04/24 09:46:30;;;;;;;8.35;4.95;;;;;;;19.93;43.06;94155.66;5137899;27;20332;-74
2023/04/24 09:48:57;;;;;;;13.20;5.20;;;;;;;19.61;43.14;94162.03;5143582;27;20184;-74
2023/04/24 09:51:36;;;;;;;7.88;4.85;;;;;;;19.63;43.62;94159.69;5129714;27;20527;-75
2023/04/24 09:54:04;;;;;;;9.15;5.05;;;;;;;20.08;43.21;94160.72;5140502;27;20277;-74
2023/04/24 09:56:34;;;;;;;6.63;4.47;;;;;;;20.44;42.80;94158.59;5128985;27;20216;-75
2023/04/24 09:59:06;;;;;;;6.00;4.38;;;;;;;20.36;43.54;94154.31;5134572;27;20211;-75
2023/04/24 10:01:33;;;;;;;6.32;4.93;;;;;;;20.25;42.33;94148.03;5133834;27;20299;-75
2023/04/24 10:04:01;;;;;;;12.02;4.38;;;;;;;20.29;42.62;94143.31;5139547;27;20208;-75
2023/04/24 10:06:32;;;;;;;6.82;4.78;;;;;;;20.60;42.13;94132.56;5143902;27;20233;-74
2023/04/24 10:08:59;;;;;;;6.13;4.50;;;;;;;21.27;41.49;94127.31;5141417;27;20253;-74
2023/04/24 10:11:28;;;;;;;9.48;4.97;;;;;;;21.48;40.18;94125.53;5135568;27;20300;-76
2023/04/24 10:13:57;;;;;;;6.18;4.63;;;;;;;21.41;41.72;94114.59;5137063;27;20226;-74
2023/04/24 10:16:24;;;;;;;6.53;4.55;;;;;;;20.68;40.94;94117.53;5149094;27;20197;-75
2023/04/24 10:18:52;;;;;;;6.68;4.40;;;;;;;20.67;41.45;94107.72;5137312;27;20201;-75
2023/04/24 10:21:18;;;;;;;7.97;4.78;;;;;;;20.51;41.79;94108.22;5142987;27;20292;-74
2023/04/24 10:23:46;;;;;;;4.88;4.30;;;;;;;20.36;40.93;94106.78;5128656;27;20213;-74
2023/04/24 10:26:17;;;;;;;9.45;4.50;;;;;;;20.22;42.11;94102.09;5134796;27;20204;-75
2023/04/24 10:28:46;;;;;;;7.95;4.72;;;;;;;20.45;41.94;94099.63;5135476;27;20325;-75
2023/04/24 10:31:14;;;;;;;6.57;4.78;;;;;;;20.51;42.70;94095.25;5136444;27;20196;-74
2023/04/24 10:33:42;;;;;;;7.05;4.47;;;;;;;20.35;41.57;94100.44;5135600;27;20254;-75
2023/04/24 10:36:11;;;;;;;5.32;4.18;;;;;;;20.31;41.47;94096.94;5141413;27;20223;-75
2023/04/24 10:38:39;;;;;;;7.03;4.28;;;;;;;20.40;41.05;94091.78;5142855;27;20260;-75
2023/04/24 10:41:16;;;;;;;7.05;4.50;;;;;;;20.60;40.34;94088.53;5128221;28;20208;-74
2023/04/24 10:43:43;;;;;;;9.15;4.28;;;;;;;21.40;39.09;94074.44;5131838;27;20665;-76
2023/04/24 10:46:11;;;;;;;6.03;4.38;;;;;;;21.42;39.05;94078.38;5138921;27;20224;-74
2023/04/24 10:48:46;;;;;;;7.13;4.18;;;;;;;21.48;39.71;94070.41;5146532;27;20227;-75
2023/04/24 10:51:14;;;;;;;7.30;4.03;;;;;;;21.82;37.99;94060.19;5136814;27;20608;-74
2023/04/24 10:53:41;;;;;;;6.88;4.25;;;;;;;21.37;37.58;94069.75;5142326;27;20296;-74
2023/04/24 10:56:10;;;;;;;4.55;4.03;;;;;;;21.73;38.29;94064.63;5141718;27;20204;-76
2023/04/24 10:58:39;;;;;;;7.50;4.00;;;;;;;21.40;37.20;94060.66;5134125;27;20239;-74
2023/04/24 11:01:07;;;;;;;7.43;3.90;;;;;;;21.67;37.16;94055.25;5128877;27;20253;-75
2023/04/24 11:03:37;;;;;;;6.20;3.75;;;;;;;22.13;37.35;94051.94;5141886;27;20293;-75
2023/04/24 11:06:05;;;;;;;6.68;3.72;;;;;;;22.53;36.63;94045.41;5142499;27;20257;-74
2023/04/24 11:08:37;;;;;;;8.32;3.83;;;;;;;23.47;34.89;94039.88;5129533;27;20317;-75
2023/04/24 11:11:09;;;;;;;4.82;3.45;;;;;;;23.70;34.94;94037.06;5146609;27;20562;-75
2023/04/24 11:14:06;;;;;;;10.02;3.85;;;;;;;23.69;33.84;94029.97;5143423;27;20241;-74
2023/04/24 11:16:35;;;;;;;7.32;3.78;;;;;;;22.66;34.85;94032.59;5140549;27;20258;-74
2023/04/24 11:19:05;;;;;;;8.80;4.05;;;;;;;22.13;36.44;94043.66;5138680;27;20201;-74
2023/04/24 11:21:33;;;;;;;7.90;3.47;;;;;;;21.68;36.90;94052.06;5132796;27;20204;-75
2023/04/24 11:24:27;;;;;;;7.05;4.45;;;;;;;21.11;39.43;94063.69;5146463;27;20210;-76
2023/04/24 11:26:56;;;;;;;8.30;4.50;;;;;;;20.38;40.55;94063.88;5145506;27;20569;-74
2023/04/24 11:29:23;;;;;;;5.53;3.55;;;;;;;19.66;42.62;94070.94;5132995;27;20212;-78
2023/04/24 11:31:51;;;;;;;7.93;3.60;;;;;;;19.04;43.59;94067.94;5132523;27;20193;-75
2023/04/24 11:34:19;;;;;;;9.18;3.03;;;;;;;19.30;48.80;94099.66;5132131;27;20229;-73